Monday, June 24, 2019, 7:50 PM EDT
Back to Local

KASH, Nashua, Boire Field Airport

Location: Nashua, NH, United States Lat: 42.782
Local Time: 7:50 PM EDT (23:50 GMT) Lon: -71.515
Time Zone: US/Eastern Elev: 200 ft

Show me the last for .
Show Decoded

2019-06-24 18:56 METAR KASH 242256Z 34004KT 10SM SCT075 28/12 A2982 RMK AO2 SLP106 T02830117 =
2019-06-24 17:56 METAR KASH 242156Z 29007KT 10SM SCT050 29/11 A2981 RMK AO2 SLP103 T02890111 =
2019-06-24 16:56 METAR KASH 242056Z COR 30005KT 10SM SCT050 29/11 A2981 RMK AO2 SLP103 T02940111
                 56005 =
2019-06-24 15:56 METAR KASH 241956Z 30007KT 10SM SCT050 29/10 A2982 RMK AO2 SLP105 T02890100 =
2019-06-24 14:56 METAR KASH 241856Z 31008KT 10SM SCT060 29/09 A2982 RMK AO2 SLP107 T02890089 =
2019-06-24 13:56 METAR KASH 241756Z 29008G15KT 260V350 10SM FEW050 29/09 A2983 RMK AO2 SLP108
                 T02890089 10289 20211 56007 =
2019-06-24 12:56 METAR KASH 241656Z 31005KT 10SM CLR 28/09 A2983 RMK AO2 SLP110 T02780089 =
2019-06-24 11:56 METAR KASH 241556Z COR 31008G16KT 10SM CLR 27/10 A2984 RMK AO2 SLP113 T02720100
                 =
2019-06-24 10:56 METAR KASH 241456Z 32009KT 10SM CLR 27/08 A2985 RMK AO2 SLP115 T02670083 50001 =
2019-06-24 09:56 METAR KASH 241356Z 31008KT 10SM CLR 25/11 A2986 RMK AO2 SLP117 T02500111 =
2019-06-24 08:56 METAR KASH 241256Z 31008KT 10SM CLR 23/12 A2986 RMK AO2 SLP118 T02330122 =
2019-06-24 07:56 METAR KASH 241156Z 30008KT 10SM CLR 21/14 A2985 RMK AO2 SLP114 T02110139 10211
                 20139 51008 =
2019-06-24 06:56 METAR KASH 241056Z 32004KT 10SM CLR 18/15 A2984 RMK AO2 SLP113 T01780150 =
2019-06-24 05:56 METAR KASH 240956Z AUTO 00000KT 10SM CLR 16/13 A2983 RMK AO2 SLP111 T01560133 =
2019-06-24 04:56 METAR KASH 240856Z AUTO 29004KT 10SM CLR 14/13 A2982 RMK AO2 SLP106 T01440133
                 53002 =
2019-06-24 03:56 METAR KASH 240756Z AUTO 33004KT 10SM CLR 16/13 A2981 RMK AO2 SLP104 T01560133 =
2019-06-24 02:56 METAR KASH 240656Z AUTO 31004KT 10SM CLR 14/13 A2981 RMK AO2 SLP103 T01440133 =
2019-06-24 01:56 METAR KASH 240556Z AUTO 31006KT 10SM CLR 17/14 A2982 RMK AO2 SLP104 T01670139
                 10261 20167 50002 =
2019-06-24 00:56 METAR KASH 240456Z AUTO 00000KT 10SM CLR 17/14 A2982 RMK AO2 SLP105 T01720144
                 402940139 =
2019-06-23 23:56 METAR KASH 240356Z AUTO 00000KT 10SM CLR 18/15 A2982 RMK AO2 SLP105 T01830150 =
2019-06-23 22:56 METAR KASH 240256Z AUTO 26003KT 10SM CLR 20/14 A2981 RMK AO2 SLP102 T02000144
                 53015 =
2019-06-23 21:56 METAR KASH 240156Z AUTO 27004KT 10SM CLR 23/13 A2979 RMK AO2 SLP095 T02280128 =
2019-06-23 20:56 METAR KASH 240056Z 00000KT 10SM CLR 23/12 A2977 RMK AO2 SLP089 T02330122 =
2019-06-23 19:56 METAR KASH 232356Z 27005KT 10SM CLR 26/12 A2977 RMK AO2 SLP087 T02610117 10294
                 20261 56004 =

Support USWX by starting your Amazon purchase here.